createdAt,value
2023-05-04T00:02:12.790Z,101441.16
2023-05-04T00:07:14.281Z,101446.03
2023-05-04T00:12:16.044Z,101433.59
2023-05-04T00:17:17.479Z,101428.25
2023-05-04T00:22:18.847Z,101428.72
2023-05-04T00:27:20.320Z,101430.63
2023-05-04T00:32:21.810Z,101431.75
2023-05-04T00:37:23.358Z,101423.06
2023-05-04T00:42:25.271Z,101415.28
2023-05-04T00:47:26.921Z,101427.41
2023-05-04T00:52:29.381Z,101420.56
2023-05-04T00:57:30.917Z,101419.81
2023-05-04T01:02:32.364Z,101410.78
2023-05-04T01:07:42.982Z,101420.09
2023-05-04T01:12:52.918Z,101418.84
2023-05-04T01:17:54.438Z,101409.94
2023-05-04T01:22:56.319Z,101405.13
2023-05-04T01:28:08.977Z,101403.66
2023-05-04T01:33:11.105Z,101422.88
2023-05-04T01:38:12.658Z,101415.78
2023-05-04T01:43:14.476Z,101416.66
2023-05-04T01:48:15.924Z,101420.56
2023-05-04T01:53:17.355Z,101412.16
2023-05-04T01:58:19.528Z,101415.69
2023-05-04T02:03:21.132Z,101405.31
2023-05-04T02:08:22.701Z,101407.28
2023-05-04T02:13:24.261Z,101412.31
2023-05-04T02:18:25.643Z,101416.16
2023-05-04T02:23:27.113Z,101422.56
2023-05-04T02:28:28.582Z,101420.41
2023-05-04T02:33:29.975Z,101418.91
2023-05-04T02:38:31.501Z,101423.63
2023-05-04T02:43:32.953Z,101424.38
2023-05-04T02:48:34.510Z,101429.63
2023-05-04T02:53:35.975Z,101426.06
2023-05-04T02:58:37.433Z,101426.50
2023-05-04T03:03:38.867Z,101422.13
2023-05-04T03:08:40.306Z,101426.94
2023-05-04T03:13:41.847Z,101433.41
2023-05-04T03:24:02.575Z,101413.81
2023-05-04T03:29:04.525Z,101422.97
2023-05-04T03:34:06.093Z,101420.50
2023-05-04T03:39:07.878Z,101405.31
2023-05-04T03:44:10.753Z,101414.97
2023-05-04T03:49:12.337Z,101412.56
2023-05-04T03:54:13.921Z,101414.00
2023-05-04T03:59:15.970Z,101404.91
2023-05-04T04:04:17.853Z,101409.16
2023-05-04T04:09:19.563Z,101412.59
2023-05-04T04:14:21.110Z,101417.19
2023-05-04T04:19:22.550Z,101405.94
2023-05-04T04:24:24.019Z,101414.28
2023-05-04T04:29:25.505Z,101414.91
2023-05-04T04:34:27.131Z,101417.84
2023-05-04T04:39:28.626Z,101415.72
2023-05-04T04:44:30.092Z,101413.91
2023-05-04T04:49:31.530Z,101416.88
2023-05-04T04:54:33.019Z,101415.22
2023-05-04T04:59:34.460Z,101409.41
2023-05-04T05:04:39.524Z,101416.09
2023-05-04T05:09:40.993Z,101411.25
2023-05-04T05:14:43.012Z,101414.78
2023-05-04T05:19:44.475Z,101404.00
2023-05-04T05:24:45.921Z,101410.94
2023-05-04T05:29:47.442Z,101410.38
2023-05-04T05:34:49.267Z,101418.53
2023-05-04T05:39:50.625Z,101418.94
2023-05-04T05:44:52.129Z,101409.31
2023-05-04T05:49:54.342Z,101405.94
2023-05-04T05:54:55.799Z,101408.34
2023-05-04T05:59:57.934Z,101412.19
2023-05-04T06:04:59.728Z,101398.97
2023-05-04T06:10:01.544Z,101399.84
2023-05-04T06:15:02.943Z,101394.94
2023-05-04T06:20:05.025Z,101396.22
2023-05-04T06:25:08.307Z,101380.09
2023-05-04T06:30:10.454Z,101386.38
2023-05-04T06:35:12.104Z,101384.00
2023-05-04T06:40:14.248Z,101384.38
2023-05-04T06:45:15.791Z,101381.31
2023-05-04T06:50:17.306Z,101371.78
2023-05-04T06:55:18.948Z,101372.44
2023-05-04T07:00:20.409Z,101374.84
2023-05-04T07:05:22.584Z,101370.75
2023-05-04T07:10:24.170Z,101361.91
2023-05-04T07:15:25.586Z,101359.50
2023-05-04T07:20:27.559Z,101351.22
2023-05-04T07:25:29.045Z,101348.84
2023-05-04T07:30:30.424Z,101338.09
2023-05-04T07:35:31.858Z,101332.06
2023-05-04T07:40:33.205Z,101336.97
2023-05-04T07:45:34.648Z,101334.44
2023-05-04T07:50:36.562Z,101328.66
2023-05-04T07:55:38.091Z,101331.44
2023-05-04T08:00:39.538Z,101321.34
2023-05-04T08:05:41.172Z,101319.66
2023-05-04T08:10:42.623Z,101325.28
2023-05-04T08:15:43.981Z,101327.88
2023-05-04T08:20:45.417Z,101313.47
2023-05-04T08:25:47.064Z,101314.72
2023-05-04T08:30:48.522Z,101297.84
2023-05-04T08:35:49.952Z,101306.47
2023-05-04T08:40:52.307Z,101295.34
2023-05-04T08:45:53.839Z,101295.69
2023-05-04T08:50:55.679Z,101287.31
2023-05-04T08:55:59.148Z,101294.75
2023-05-04T09:01:01.287Z,101284.72
2023-05-04T09:06:03.443Z,101276.00
2023-05-04T09:11:05.169Z,101285.06
2023-05-04T09:16:07.622Z,101279.69
2023-05-04T09:21:09.418Z,101276.69
2023-05-04T09:26:10.872Z,101279.25
2023-05-04T09:31:12.371Z,101272.09
2023-05-04T09:36:15.625Z,101272.13
2023-05-04T09:41:17.112Z,101263.91
2023-05-04T09:46:19.571Z,101265.06
2023-05-04T09:51:23.566Z,101255.63
2023-05-04T09:56:42.609Z,101258.81
2023-05-04T10:01:45.078Z,101244.56
2023-05-04T10:06:46.792Z,101237.00
2023-05-04T10:11:49.100Z,101227.66
2023-05-04T10:17:02.832Z,101226.59
2023-05-04T10:22:38.549Z,101226.75
2023-05-04T10:28:01.413Z,101211.94
2023-05-04T10:33:04.470Z,101193.34
2023-05-04T10:38:06.360Z,101186.19
2023-05-04T10:43:08.519Z,101179.94
2023-05-04T10:48:10.162Z,101174.09
2023-05-04T10:53:16.292Z,101170.56
2023-05-04T10:58:28.392Z,101167.56
2023-05-04T11:03:41.076Z,101154.03
2023-05-04T11:08:43.180Z,101149.00
2023-05-04T11:13:48.537Z,101137.13
2023-05-04T11:18:50.008Z,101129.66
2023-05-04T11:23:58.857Z,101123.31
2023-05-04T11:29:00.310Z,101111.13
2023-05-04T11:34:01.790Z,101110.66
2023-05-04T11:39:05.952Z,101112.19
2023-05-04T11:44:08.106Z,101098.34
2023-05-04T11:49:09.578Z,101097.66
2023-05-04T11:54:19.654Z,101096.13
2023-05-04T11:59:21.090Z,101083.63
2023-05-04T12:04:22.669Z,101075.25
2023-05-04T12:09:26.809Z,101069.78
2023-05-04T12:14:28.365Z,101073.34
2023-05-04T12:19:31.244Z,101071.44
2023-05-04T12:24:32.870Z,101058.00
2023-05-04T12:29:34.322Z,101060.03
2023-05-04T12:34:48.104Z,101051.56
2023-05-04T12:39:49.588Z,101051.63
2023-05-04T12:44:51.123Z,101048.59
2023-05-04T12:49:55.972Z,101039.59
2023-05-04T12:54:57.418Z,101041.97
2023-05-04T12:59:59.341Z,101024.84
2023-05-04T13:05:00.853Z,101022.09
2023-05-04T13:10:02.306Z,101018.06
2023-05-04T13:15:04.096Z,101018.56
2023-05-04T13:20:07.105Z,101016.31
2023-05-04T13:25:09.298Z,101010.16
2023-05-04T13:30:11.931Z,101010.34
2023-05-04T13:35:13.552Z,101005.56
2023-05-04T13:40:15.006Z,100997.97
2023-05-04T13:45:16.605Z,100989.31
2023-05-04T13:50:18.827Z,100981.66
2023-05-04T13:55:20.340Z,100961.13
2023-05-04T14:00:21.996Z,100956.63
2023-05-04T14:05:23.496Z,100950.22
2023-05-04T14:10:25.004Z,100955.47
2023-05-04T14:15:27.507Z,100951.69
2023-05-04T14:20:30.177Z,100940.63
2023-05-04T14:25:32.086Z,100931.09
2023-05-04T14:30:33.926Z,100930.91
2023-05-04T14:35:37.415Z,100917.88
2023-05-04T14:46:17.242Z,100890.34
2023-05-04T14:51:55.497Z,100904.53
2023-05-04T14:57:00.995Z,100896.38
2023-05-04T15:02:05.413Z,100874.47
2023-05-04T15:07:08.108Z,100886.16
2023-05-04T15:12:09.682Z,100873.00
2023-05-04T15:17:11.203Z,100875.34
2023-05-04T15:22:16.692Z,100873.19
2023-05-04T15:27:18.832Z,100864.41
2023-05-04T15:32:20.276Z,100863.84
2023-05-04T15:37:21.968Z,100856.59
2023-05-04T15:42:23.408Z,100855.34
2023-05-04T15:47:24.933Z,100850.19
2023-05-04T15:52:26.757Z,100854.75
2023-05-04T15:57:28.216Z,100843.06
2023-05-04T16:02:29.651Z,100831.16
2023-05-04T16:07:31.179Z,100830.03
2023-05-04T16:12:32.636Z,100826.00
2023-05-04T16:17:35.363Z,100823.03
2023-05-04T16:22:36.986Z,100810.09
2023-05-04T16:27:38.596Z,100824.53
2023-05-04T16:32:40.060Z,100817.53
2023-05-04T16:37:41.522Z,100815.97
2023-05-04T16:42:43.687Z,100809.84
2023-05-04T16:47:45.694Z,100807.34
2023-05-04T16:52:47.191Z,100801.38
2023-05-04T16:57:48.619Z,100807.34
2023-05-04T17:02:51.758Z,100804.16
2023-05-04T17:07:53.949Z,100808.09
2023-05-04T17:12:55.532Z,100799.63
2023-05-04T17:17:57.223Z,100798.31
2023-05-04T17:22:58.902Z,100800.06
2023-05-04T17:28:00.640Z,100799.34
2023-05-04T17:33:02.154Z,100799.75
2023-05-04T17:38:03.624Z,100806.97
2023-05-04T17:43:05.092Z,100815.78
2023-05-04T17:48:06.576Z,100819.41
2023-05-04T17:53:08.098Z,100825.16
2023-05-04T17:58:09.540Z,100829.91
2023-05-04T18:03:11.047Z,100829.00
2023-05-04T18:08:13.037Z,100827.94
2023-05-04T18:13:14.633Z,100822.53
2023-05-04T18:18:16.321Z,100813.50
2023-05-04T18:23:17.748Z,100805.94
2023-05-04T18:28:19.179Z,100816.91
2023-05-04T18:33:20.619Z,100824.72
2023-05-04T18:38:22.124Z,100819.84
2023-05-04T18:43:23.712Z,100811.34
2023-05-04T18:48:25.187Z,100823.91
2023-05-04T18:53:26.776Z,100825.50
2023-05-04T18:58:28.429Z,100833.03
2023-05-04T19:03:30.009Z,100839.69
2023-05-04T19:08:31.573Z,100842.69
2023-05-04T19:13:33.166Z,100853.75
2023-05-04T19:18:34.647Z,100855.31
2023-05-04T19:23:36.106Z,100846.66
2023-05-04T19:28:39.822Z,100851.44
2023-05-04T19:33:48.494Z,100847.00
2023-05-04T19:38:50.997Z,100846.44
2023-05-04T19:43:52.476Z,100839.50
2023-05-04T19:48:53.943Z,100840.13
2023-05-04T19:53:56.178Z,100839.47
2023-05-04T19:58:57.614Z,100836.97
2023-05-04T20:03:59.139Z,100834.84
2023-05-04T20:09:00.713Z,100832.78
2023-05-04T20:14:02.165Z,100829.63
2023-05-04T20:19:06.744Z,100824.03
2023-05-04T20:24:08.747Z,100828.31
2023-05-04T20:29:10.376Z,100832.84
2023-05-04T20:34:11.997Z,100836.19
2023-05-04T20:39:13.598Z,100834.63
2023-05-04T20:44:16.505Z,100835.88
2023-05-04T20:49:17.939Z,100832.09
2023-05-04T20:54:19.594Z,100838.66
2023-05-04T20:59:21.094Z,100838.56
2023-05-04T21:04:22.543Z,100827.69
2023-05-04T21:09:24.105Z,100840.91
2023-05-04T21:14:25.758Z,100833.00
2023-05-04T21:19:27.280Z,100833.25
2023-05-04T21:24:28.742Z,100817.41
2023-05-04T21:29:30.376Z,100822.50
2023-05-04T21:34:31.834Z,100815.28
2023-05-04T21:39:33.278Z,100813.16
2023-05-04T21:44:34.747Z,100814.16
2023-05-04T21:49:36.557Z,100811.63
2023-05-04T21:54:37.993Z,100818.72
2023-05-04T21:59:39.629Z,100814.69
2023-05-04T22:04:44.350Z,100820.94
2023-05-04T22:09:45.823Z,100815.03
2023-05-04T22:14:47.271Z,100810.13
2023-05-04T22:19:48.806Z,100817.88
2023-05-04T22:24:50.571Z,100822.25
2023-05-04T22:29:52.093Z,100829.97
2023-05-04T22:34:53.572Z,100819.69
2023-05-04T22:39:55.033Z,100827.72
2023-05-04T22:44:56.855Z,100830.16
2023-05-04T22:49:58.383Z,100828.28
2023-05-04T22:54:59.860Z,100829.41
2023-05-04T23:00:01.327Z,100817.09
2023-05-04T23:05:03.811Z,100814.81
2023-05-04T23:10:06.048Z,100814.94
2023-05-04T23:15:08.584Z,100815.63
2023-05-04T23:20:10.610Z,100821.06
2023-05-04T23:25:12.222Z,100821.25
2023-05-04T23:30:14.108Z,100813.59
2023-05-04T23:35:15.615Z,100814.47
2023-05-04T23:40:17.120Z,100807.25
2023-05-04T23:45:18.616Z,100814.19
2023-05-04T23:50:20.104Z,100804.56
2023-05-04T23:55:21.755Z,100813.78
